Time;durP1;ratioP1;P1;durP2;ratioP2;P2;SDS_P1;SDS_P2;PMS_P1;PMS_P2;Temp;Humidity;BMP_temperature;BMP_pressure;BME280_temperature;BME280_humidity;BME280_pressure;Samples;Min_cycle;Max_cycle;Signal;HPM_P1;HPM_P2
2023/09/03 00:01:06;;;;;;;;;3.25;3.00;;;;;23.23;64.71;101749.88;5058099;28;45265;-71
2023/09/03 00:03:31;;;;;;;;;3.50;3.50;;;;;23.25;64.77;101754.06;5057273;28;45624;-72
2023/09/03 00:05:57;;;;;;;;;5.25;4.00;;;;;23.32;64.83;101760.34;5057738;28;45376;-72
2023/09/03 00:08:23;;;;;;;;;3.25;3.00;;;;;23.27;64.99;101770.16;5058485;28;45480;-73
2023/09/03 00:10:52;;;;;;;;;2.00;2.00;;;;;23.20;64.97;101759.25;5058798;28;45497;-72
2023/09/03 00:13:19;;;;;;;;;2.25;2.25;;;;;23.27;65.09;101770.97;5057412;28;46539;-72
2023/09/03 00:15:44;;;;;;;;;2.00;2.00;;;;;23.27;65.04;101772.84;5057406;28;45286;-71
2023/09/03 00:18:11;;;;;;;;;2.00;2.00;;;;;23.17;65.11;101751.50;5057564;28;45557;-72
2023/09/03 00:20:37;;;;;;;;;3.00;3.00;;;;;23.20;65.39;101767.38;5057850;28;45324;-72
2023/09/03 00:23:02;;;;;;;;;3.67;3.67;;;;;23.03;65.18;101755.22;5057223;28;46440;-73
2023/09/03 00:25:28;;;;;;;;;3.00;3.00;;;;;23.18;65.30;101783.03;5057089;28;45522;-71
2023/09/03 00:27:53;;;;;;;;;3.75;2.50;;;;;23.18;65.54;101779.47;5056859;28;56212;-73
2023/09/03 00:30:18;;;;;;;;;2.75;2.25;;;;;23.18;65.32;101772.19;5057253;28;45261;-71
2023/09/03 00:32:44;;;;;;;;;1.00;1.00;;;;;23.19;65.24;101776.56;5057295;28;46856;-71
2023/09/03 00:35:09;;;;;;;;;2.00;2.00;;;;;23.18;64.74;101769.47;5056098;28;46352;-72
2023/09/03 00:37:35;;;;;;;;;3.67;2.67;;;;;22.92;64.73;101731.38;5057089;28;45347;-71
2023/09/03 00:40:01;;;;;;;;;3.00;3.00;;;;;22.87;64.88;101723.84;5056571;28;45385;-73
2023/09/03 00:42:27;;;;;;;;;3.25;3.00;;;;;23.10;64.78;101769.66;5057109;28;46651;-71
2023/09/03 00:44:52;;;;;;;;;3.00;2.00;;;;;22.78;64.72;101719.59;5056901;28;45341;-73
2023/09/03 00:47:18;;;;;;;;;3.00;3.00;;;;;23.14;65.10;101779.06;5057199;28;45267;-73
2023/09/03 00:49:44;;;;;;;;;2.00;2.00;;;;;23.01;64.74;101784.41;5057165;28;45431;-71
2023/09/03 00:52:11;;;;;;;;;2.67;2.67;;;;;22.93;65.15;101771.84;5056624;28;45747;-72
2023/09/03 00:54:37;;;;;;;;;2.00;2.00;;;;;22.90;65.01;101774.97;5056914;28;45456;-71
2023/09/03 00:57:03;;;;;;;;;3.33;3.33;;;;;22.98;65.17;101791.06;5057070;28;45229;-72
2023/09/03 00:59:30;;;;;;;;;2.33;2.33;;;;;22.96;65.34;101786.88;5057288;28;45340;-72
2023/09/03 01:01:56;;;;;;;;;1.75;1.75;;;;;23.01;65.26;101819.66;5057399;28;46830;-73
2023/09/03 01:04:22;;;;;;;;;3.50;3.50;;;;;23.01;65.11;101812.34;5055332;28;45593;-71
2023/09/03 01:06:51;;;;;;;;;2.50;2.50;;;;;23.00;65.64;101805.25;5057073;28;45430;-71
2023/09/03 01:09:18;;;;;;;;;2.67;2.67;;;;;22.93;65.48;101792.72;5057066;28;45311;-72
2023/09/03 01:11:57;;;;;;;;;3.00;3.00;;;;;22.89;65.57;101797.69;5055332;28;47832;-70
2023/09/03 01:14:33;;;;;;;;;4.00;2.75;;;;;22.87;65.65;101798.94;5056597;28;45438;-72
2023/09/03 01:17:12;;;;;;;;;2.50;2.50;;;;;22.91;65.43;101801.06;5056611;28;45433;-73
2023/09/03 01:19:52;;;;;;;;;4.00;4.00;;;;;22.92;65.54;101796.47;5056216;28;45536;-72
2023/09/03 01:22:38;;;;;;;;;2.00;2.00;;;;;22.92;65.64;101785.63;5056391;28;45396;-73
2023/09/03 01:25:24;;;;;;;;;3.25;3.25;;;;;22.92;65.66;101778.31;5055050;28;46548;-72
2023/09/03 01:28:01;;;;;;;;;2.00;2.00;;;;;22.95;65.20;101779.78;5056733;28;45335;-72
2023/09/03 01:30:27;;;;;;;;;4.00;3.00;;;;;22.71;65.27;101735.81;5057576;28;45227;-74
2023/09/03 01:32:53;;;;;;;;;2.75;2.75;;;;;22.36;65.64;101682.66;5056510;28;46479;-72
2023/09/03 01:35:19;;;;;;;;;2.67;2.67;;;;;22.83;65.49;101748.88;5055177;28;46389;-73
2023/09/03 01:37:45;;;;;;;;;4.75;4.75;;;;;22.91;65.57;101763.09;5056609;28;45224;-71
2023/09/03 01:40:10;;;;;;;;;3.00;3.00;;;;;22.82;66.12;101741.75;5056632;28;45494;-71
2023/09/03 01:42:36;;;;;;;;;2.50;2.50;;;;;22.75;65.48;101738.97;5056296;28;45532;-72
2023/09/03 01:45:02;;;;;;;;;3.75;3.75;;;;;22.80;65.93;101743.78;5055672;28;64772;-73
2023/09/03 01:47:38;;;;;;;;;3.00;3.00;;;;;22.31;66.23;101669.72;5056544;28;45315;-73
2023/09/03 01:50:18;;;;;;;;;2.00;2.00;;;;;22.71;65.94;101740.41;5058069;28;45479;-72
2023/09/03 01:52:59;;;;;;;;;2.33;2.33;;;;;22.67;65.98;101742.69;5058026;28;48556;-73
2023/09/03 01:55:26;;;;;;;;;2.00;2.00;;;;;22.51;66.06;101713.19;5060164;28;45264;-72
2023/09/03 01:57:59;;;;;;;;;4.33;4.00;;;;;22.37;66.34;101690.56;5059876;28;45285;-73
2023/09/03 02:00:26;;;;;;;;;2.67;2.67;;;;;22.71;66.27;101743.13;5059915;28;45430;-73
2023/09/03 02:02:52;;;;;;;;;3.33;3.33;;;;;22.56;66.08;101721.56;5059155;28;45897;-72
2023/09/03 02:05:17;;;;;;;;;2.00;2.00;;;;;22.68;66.17;101735.41;5059368;28;45244;-71
2023/09/03 02:07:43;;;;;;;;;4.33;2.67;;;;;22.70;66.08;101742.28;5059635;28;45532;-73
2023/09/03 02:10:09;;;;;;;;;3.00;3.00;;;;;22.68;66.04;101735.41;5059875;28;45198;-71
2023/09/03 02:12:35;;;;;;;;;2.25;1.25;;;;;22.61;66.11;101723.66;5059739;28;46421;-72
2023/09/03 02:15:00;;;;;;;;;3.00;2.00;;;;;22.70;66.16;101750.41;5059433;28;45437;-72
2023/09/03 02:17:26;;;;;;;;;3.00;3.00;;;;;22.69;66.02;101743.31;5059520;28;45458;-72
2023/09/03 02:19:53;;;;;;;;;3.67;3.00;;;;;22.58;65.87;101730.31;5059276;28;45241;-70
2023/09/03 02:22:18;;;;;;;;;3.00;3.00;;;;;22.51;65.62;101709.63;5059906;28;45727;-72
2023/09/03 02:24:44;;;;;;;;;2.50;2.50;;;;;22.62;65.96;101734.28;5058484;28;45351;-71
2023/09/03 02:27:10;;;;;;;;;2.75;2.75;;;;;22.66;65.65;101760.00;5059359;28;45477;-73
2023/09/03 02:29:36;;;;;;;;;1.75;1.75;;;;;22.60;65.85;101759.94;5059645;28;45313;-72
2023/09/03 02:32:01;;;;;;;;;3.00;3.00;;;;;22.69;65.69;101773.16;5057909;28;47575;-71
2023/09/03 02:34:27;;;;;;;;;3.75;3.75;;;;;22.54;65.89;101752.59;5058937;28;45462;-71
2023/09/03 02:36:52;;;;;;;;;2.50;2.25;;;;;22.56;66.37;101759.50;5058026;28;45261;-72
2023/09/03 02:39:17;;;;;;;;;3.50;3.50;;;;;22.28;66.36;101726.16;5059383;28;45571;-73
2023/09/03 02:41:43;;;;;;;;;3.00;3.00;;;;;22.23;66.72;101715.09;5058723;28;45527;-73
2023/09/03 02:44:09;;;;;;;;;3.00;3.00;;;;;22.47;66.67;101771.53;5058957;28;45241;-71
2023/09/03 02:46:35;;;;;;;;;5.25;4.50;;;;;22.45;67.22;101773.59;5057768;28;45244;-72
2023/09/03 02:49:01;;;;;;;;;5.25;5.00;;;;;22.40;66.83;101776.03;5059577;28;45423;-72
2023/09/03 02:51:26;;;;;;;;;8.00;6.00;;;;;22.38;67.01;101775.41;5057659;28;47352;-70
2023/09/03 02:53:53;;;;;;;;;5.50;5.00;;;;;22.20;67.32;101737.13;5058343;28;49745;-72
2023/09/03 02:56:18;;;;;;;;;7.00;6.33;;;;;22.38;66.83;101773.53;5058739;28;45429;-71
2023/09/03 02:58:46;;;;;;;;;7.00;7.00;;;;;22.31;67.30;101772.66;5058861;28;45515;-72
2023/09/03 03:01:14;;;;;;;;;8.00;8.00;;;;;22.32;67.37;101785.16;5057431;28;46605;-72
2023/09/03 03:03:40;;;;;;;;;5.00;5.00;;;;;22.24;67.79;101774.50;5058616;28;45438;-71
2023/09/03 03:06:06;;;;;;;;;6.67;6.67;;;;;22.20;67.61;101772.34;5058444;28;45414;-72
2023/09/03 03:08:31;;;;;;;;;5.67;4.33;;;;;22.17;68.14;101785.25;5058922;28;45529;-72
2023/09/03 03:11:09;;;;;;;;;6.00;5.00;;;;;22.15;68.26;101800.84;5058274;28;46069;-71
2023/09/03 03:13:37;;;;;;;;;5.33;5.33;;;;;22.06;68.25;101779.53;5058535;28;45413;-71
2023/09/03 03:16:10;;;;;;;;;4.33;4.33;;;;;22.14;68.48;101793.75;5057208;28;45247;-73
2023/09/03 03:18:37;;;;;;;;;3.00;3.00;;;;;21.99;67.82;101763.16;5057869;28;45308;-71
2023/09/03 03:21:18;;;;;;;;;4.67;4.00;;;;;22.04;68.18;101779.72;5057888;28;47626;-74
2023/09/03 03:23:47;;;;;;;;;3.00;3.00;;;;;21.81;67.79;101735.72;5058353;28;45344;-72
2023/09/03 03:26:12;;;;;;;;;2.67;2.67;;;;;21.98;67.97;101766.91;5058578;28;45458;-73
2023/09/03 03:28:37;;;;;;;;;3.25;3.25;;;;;22.14;68.30;101798.34;5058567;28;45459;-73
2023/09/03 03:31:18;;;;;;;;;4.75;2.25;;;;;21.85;67.90;101762.22;5057991;28;50324;-72
2023/09/03 03:33:45;;;;;;;;;3.00;3.00;;;;;22.05;67.90;101792.25;5056527;28;45560;-72
2023/09/03 03:36:15;;;;;;;;;3.00;3.00;;;;;22.04;67.82;101803.22;5058234;28;45317;-70
2023/09/03 03:38:41;;;;;;;;;3.00;3.00;;;;;22.01;68.13;101796.31;5058311;28;45601;-72
2023/09/03 03:41:11;;;;;;;;;3.00;2.00;;;;;22.11;67.54;101813.13;5057874;28;45576;-72
2023/09/03 03:43:38;;;;;;;;;2.75;2.75;;;;;22.05;68.25;101799.53;5058758;28;45279;-71
2023/09/03 03:46:08;;;;;;;;;3.00;1.75;;;;;22.04;67.91;101814.94;5058144;28;45256;-72
2023/09/03 03:48:34;;;;;;;;;3.00;3.00;;;;;22.05;68.02;101815.78;5058058;28;45573;-73
2023/09/03 03:51:00;;;;;;;;;2.00;2.00;;;;;22.02;68.70;101819.66;5057895;28;46670;-71
2023/09/03 03:53:25;;;;;;;;;3.00;3.00;;;;;21.89;68.28;101811.41;5057194;28;45380;-72
2023/09/03 03:56:01;;;;;;;;;2.00;2.00;;;;;21.66;68.09;101772.84;5057997;28;45516;-71
2023/09/03 03:58:34;;;;;;;;;3.25;3.25;;;;;21.92;68.46;101816.44;5058263;28;45470;-73
2023/09/03 04:00:59;;;;;;;;;4.75;3.50;;;;;21.70;68.71;101795.78;5057444;28;45950;-71
2023/09/03 04:03:29;;;;;;;;;2.00;2.00;;;;;21.87;68.69;101835.13;5056994;28;45383;-70
2023/09/03 04:05:56;;;;;;;;;3.25;3.25;;;;;21.83;68.65;101840.09;5057852;28;45289;-71
2023/09/03 04:08:22;;;;;;;;;4.00;3.25;;;;;21.87;68.86;101856.78;5057385;28;45549;-71
2023/09/03 04:10:55;;;;;;;;;2.67;2.67;;;;;21.84;68.65;101849.06;5058245;28;46599;-72
2023/09/03 04:13:20;;;;;;;;;3.00;3.00;;;;;21.85;68.72;101848.03;5057347;28;45198;-72
2023/09/03 04:15:45;;;;;;;;;4.75;4.00;;;;;21.85;68.43;101853.44;5057697;28;45304;-71
2023/09/03 04:18:10;;;;;;;;;3.67;3.67;;;;;21.88;68.33;101849.50;5057704;28;45751;-72
2023/09/03 04:20:36;;;;;;;;;2.00;2.00;;;;;21.72;68.66;101834.34;5056771;28;59142;-72
2023/09/03 04:23:03;;;;;;;;;1.67;1.67;;;;;21.80;69.26;101850.44;5057530;28;45433;-70
2023/09/03 04:25:29;;;;;;;;;2.33;2.33;;;;;21.85;68.43;101848.03;5056240;28;45341;-72
2023/09/03 04:27:54;;;;;;;;;2.00;2.00;;;;;21.80;68.38;101839.63;5057523;28;45236;-70
2023/09/03 04:30:19;;;;;;;;;2.00;2.00;;;;;21.77;68.78;101834.59;5055780;28;58669;-71
2023/09/03 04:32:44;;;;;;;;;4.50;2.00;;;;;21.46;68.64;101794.28;5057326;28;45390;-72
2023/09/03 04:35:10;;;;;;;;;2.50;2.50;;;;;21.78;68.47;101847.09;5057005;28;52536;-72
2023/09/03 04:37:35;;;;;;;;;6.00;3.00;;;;;21.44;68.79;101802.59;5057428;28;58392;-71
2023/09/03 04:40:00;;;;;;;;;3.00;3.00;;;;;21.80;68.48;101862.09;5057353;28;46389;-70
2023/09/03 04:42:26;;;;;;;;;2.50;2.50;;;;;21.60;68.67;101836.69;5057283;28;45368;-70
2023/09/03 04:44:51;;;;;;;;;3.75;2.25;;;;;21.78;68.99;101879.56;5057288;28;45279;-72
2023/09/03 04:47:16;;;;;;;;;2.25;2.25;;;;;21.68;68.73;101857.41;5057549;28;45207;-70
2023/09/03 04:49:42;;;;;;;;;2.00;2.00;;;;;21.60;68.64;101838.53;5055338;28;51013;-71
2023/09/03 04:52:07;;;;;;;;;2.25;2.25;;;;;21.78;68.73;101868.75;5054735;28;60473;-72
2023/09/03 04:54:33;;;;;;;;;3.33;3.33;;;;;21.78;68.61;101869.59;5056575;28;45952;-73
2023/09/03 04:56:58;;;;;;;;;2.75;2.75;;;;;21.68;68.63;101843.88;5057465;28;45489;-72
2023/09/03 04:59:23;;;;;;;;;5.00;3.00;;;;;21.71;68.62;101847.03;5072504;28;47299;-71
2023/09/03 05:01:49;;;;;;;;;2.00;2.00;;;;;21.81;68.60;101858.38;5056979;28;45446;-70
2023/09/03 05:04:14;;;;;;;;;5.50;3.00;;;;;21.63;68.54;101838.19;5056754;28;45267;-71
2023/09/03 05:06:39;;;;;;;;;4.50;3.00;;;;;21.80;68.26;101859.41;5055672;28;45339;-71
2023/09/03 05:09:05;;;;;;;;;5.25;4.25;;;;;21.78;68.77;101871.44;5056679;28;45843;-72
2023/09/03 05:11:31;;;;;;;;;3.25;3.25;;;;;21.55;68.79;101831.00;5056758;28;45268;-71
2023/09/03 05:13:56;;;;;;;;;2.25;2.25;;;;;21.69;68.65;101859.06;5056680;28;45665;-71
2023/09/03 05:16:23;;;;;;;;;3.00;3.00;;;;;21.76;68.82;101876.22;5056870;28;45237;-70
2023/09/03 05:18:48;;;;;;;;;0.25;0.25;;;;;21.35;68.76;101816.38;5056123;28;45806;-73
2023/09/03 05:21:14;;;;;;;;;3.00;3.00;;;;;21.64;68.70;101862.34;5056685;28;46597;-71
2023/09/03 05:23:40;;;;;;;;;3.00;3.00;;;;;21.76;68.67;101870.81;5056870;28;45828;-72
2023/09/03 05:26:05;;;;;;;;;3.00;3.00;;;;;21.66;68.89;101859.47;5060082;28;45692;-72
2023/09/03 05:28:32;;;;;;;;;3.25;3.25;;;;;21.75;68.81;101885.38;5060063;28;45688;-71
2023/09/03 05:30:57;;;;;;;;;2.00;2.00;;;;;21.74;68.66;101878.28;5060315;28;45186;-71
2023/09/03 05:33:23;;;;;;;;;4.25;3.00;;;;;21.42;68.87;101825.41;5060548;28;45516;-76
2023/09/03 05:35:48;;;;;;;;;2.25;2.00;;;;;21.79;68.23;101879.38;5093016;27;45286;-71
2023/09/03 05:38:14;;;;;;;;;3.00;3.00;;;;;21.80;68.47;101877.50;5060425;28;47639;-77
2023/09/03 05:40:41;;;;;;;;;3.00;3.00;;;;;21.89;68.41;101889.09;5060705;28;45571;-77
2023/09/03 05:43:06;;;;;;;;;3.00;3.00;;;;;21.90;68.56;101894.31;5060516;28;45505;-76
2023/09/03 05:45:32;;;;;;;;;2.00;2.00;;;;;21.71;68.56;101865.13;5092816;27;45498;-72
2023/09/03 05:47:58;;;;;;;;;3.00;3.00;;;;;21.91;68.17;101890.56;5059867;28;45688;-72
2023/09/03 05:50:23;;;;;;;;;3.00;3.00;;;;;21.93;68.09;101899.34;5057689;28;45567;-71
2023/09/03 05:52:49;;;;;;;;;2.50;2.50;;;;;21.94;68.14;101908.31;5058556;28;45593;-71
2023/09/03 05:55:14;;;;;;;;;3.00;3.00;;;;;21.97;68.22;101913.34;5059605;28;49569;-75
2023/09/03 05:57:40;;;;;;;;;3.75;3.75;;;;;21.72;68.16;101858.69;5061414;28;45848;-74
2023/09/03 06:00:06;;;;;;;;;4.00;4.00;;;;;21.92;68.55;101913.91;5059359;28;45295;-75
2023/09/03 06:02:33;;;;;;;;;3.33;3.33;;;;;21.92;67.93;101905.78;5060006;28;45222;-77
2023/09/03 06:04:59;;;;;;;;;3.33;3.33;;;;;21.90;67.93;101905.13;5059890;28;45472;-76
2023/09/03 06:07:24;;;;;;;;;2.33;2.33;;;;;21.81;67.83;101879.19;5059812;28;46411;-75
2023/09/03 06:09:50;;;;;;;;;2.75;2.75;;;;;21.92;67.46;101891.41;5058210;28;53527;-75
2023/09/03 06:12:15;;;;;;;;;3.00;3.00;;;;;21.75;67.38;101863.72;5060178;28;45324;-72
2023/09/03 06:14:41;;;;;;;;;2.00;2.00;;;;;22.13;67.17;101922.09;5061171;28;45469;-77
2023/09/03 06:17:06;;;;;;;;;3.00;2.75;;;;;22.09;66.87;101915.41;5059872;28;46494;-71
2023/09/03 06:19:32;;;;;;;;;4.00;3.00;;;;;22.07;66.93;101909.34;5059084;28;45665;-70
2023/09/03 06:21:57;;;;;;;;;2.75;2.75;;;;;22.38;66.65;101937.97;5075252;27;45529;-70
2023/09/03 06:24:23;;;;;;;;;6.00;3.00;;;;;22.54;66.48;101942.31;5060586;28;45581;-71
2023/09/03 06:26:48;;;;;;;;;5.67;4.00;;;;;22.68;65.88;101947.69;5059117;28;45903;-73
2023/09/03 06:29:13;;;;;;;;;4.67;4.00;;;;;22.92;65.05;101953.75;5057089;28;45477;-73
2023/09/03 06:31:39;;;;;;;;;3.67;3.67;;;;;23.06;64.68;101944.69;5073555;27;45398;-73
2023/09/03 06:34:04;;;;;;;;;4.00;3.00;;;;;23.30;63.71;101938.81;5059357;28;45287;-73
2023/09/03 06:36:30;;;;;;;;;3.00;3.00;;;;;23.61;63.15;101948.41;5057786;28;46079;-72
2023/09/03 06:38:55;;;;;;;;;2.25;2.00;;;;;23.80;62.34;101958.53;5059325;28;45257;-71
2023/09/03 06:41:20;;;;;;;;;4.00;4.00;;;;;23.97;62.06;101942.72;5059084;28;45579;-73
2023/09/03 06:43:46;;;;;;;;;5.75;4.75;;;;;24.19;61.25;101951.56;5074774;28;45649;-72
2023/09/03 06:46:12;;;;;;;;;4.25;4.25;;;;;24.49;60.94;101961.09;5059030;28;45723;-74
2023/09/03 06:48:37;;;;;;;;;4.00;3.25;;;;;24.47;59.57;101911.53;5059034;28;45282;-73
2023/09/03 06:51:03;;;;;;;;;2.75;2.75;;;;;25.00;59.10;101960.53;5057733;28;45316;-73
2023/09/03 06:53:28;;;;;;;;;4.75;3.75;;;;;25.28;58.02;101973.09;5059663;28;45528;-73
2023/09/03 06:55:54;;;;;;;;;5.00;4.00;;;;;25.54;56.94;101969.47;5058850;28;45418;-73
2023/09/03 06:58:19;;;;;;;;;4.00;4.00;;;;;25.56;56.47;101940.97;5058970;28;45194;-73
2023/09/03 07:00:45;;;;;;;;;3.00;3.00;;;;;25.87;55.58;101950.34;5058923;28;45432;-73
2023/09/03 07:03:10;;;;;;;;;3.50;3.50;;;;;26.15;54.65;101963.59;5059011;28;45589;-72
2023/09/03 07:05:35;;;;;;;;;3.00;3.00;;;;;26.35;54.05;101978.00;5058725;28;45796;-72
2023/09/03 07:08:01;;;;;;;;;3.50;3.50;;;;;26.59;53.78;101974.47;5074066;28;46552;-73
2023/09/03 07:10:26;;;;;;;;;2.00;2.00;;;;;26.82;52.89;101976.63;5058673;28;45405;-72
2023/09/03 07:12:52;;;;;;;;;4.00;4.00;;;;;26.88;52.06;101969.47;5058986;28;45511;-73
2023/09/03 07:15:17;;;;;;;;;3.75;3.25;;;;;27.15;51.49;101981.84;5058425;28;46922;-73
2023/09/03 07:17:42;;;;;;;;;2.00;2.00;;;;;27.26;50.62;101974.81;5074519;28;45360;-73
2023/09/03 07:20:08;;;;;;;;;4.25;4.25;;;;;27.49;50.55;101976.91;5058102;28;45268;-73
2023/09/03 07:22:34;;;;;;;;;3.50;3.50;;;;;27.57;49.01;101969.22;5058784;28;45509;-72
2023/09/03 07:24:59;;;;;;;;;2.00;2.00;;;;;27.76;48.64;101977.47;5058089;28;46726;-73
2023/09/03 07:27:24;;;;;;;;;3.00;3.00;;;;;27.88;48.90;101986.56;5058315;28;45260;-73
2023/09/03 07:29:53;;;;;;;;;2.00;2.00;;;;;28.04;48.15;101996.88;5058997;28;45284;-73
2023/09/03 07:32:21;;;;;;;;;2.00;2.00;;;;;28.22;48.11;101993.28;5058589;28;45527;-72
2023/09/03 07:34:46;;;;;;;;;3.50;3.00;;;;;28.54;46.89;101988.44;5056474;28;47242;-72
2023/09/03 07:37:12;;;;;;;;;3.00;3.00;;;;;28.80;46.62;101987.19;5058426;28;45418;-72
2023/09/03 07:39:37;;;;;;;;;1.75;1.75;;;;;29.03;45.87;101979.06;5058442;28;45486;-72
2023/09/03 07:42:03;;;;;;;;;2.50;2.00;;;;;29.51;45.47;101979.91;5058439;28;45445;-73
2023/09/03 07:44:28;;;;;;;;;2.75;2.75;;;;;29.58;44.27;101925.78;5074034;28;47566;-73
2023/09/03 07:46:53;;;;;;;;;2.00;2.00;;;;;30.01;43.01;101941.75;5056570;28;45404;-72
2023/09/03 07:49:19;;;;;;;;;4.00;1.75;;;;;30.34;43.13;101952.00;5059377;28;45366;-74
2023/09/03 07:51:44;;;;;;;;;2.00;2.00;;;;;30.57;42.41;101935.41;5058344;28;45483;-73
2023/09/03 07:54:10;;;;;;;;;1.75;1.75;;;;;31.07;42.01;101945.59;5058057;28;46034;-73
2023/09/03 07:56:35;;;;;;;;;2.00;2.00;;;;;31.47;41.16;101948.13;5057977;28;45321;-74
2023/09/03 07:59:00;;;;;;;;;3.00;3.00;;;;;31.69;40.04;101920.63;5058086;28;45454;-74
2023/09/03 08:01:26;;;;;;;;;3.00;2.00;;;;;32.36;39.30;101964.34;5057863;28;45267;-73
2023/09/03 08:03:51;;;;;;;;;4.00;2.75;;;;;32.74;39.20;101965.22;5073065;27;46143;-75
2023/09/03 08:06:16;;;;;;;;;2.75;2.75;;;;;33.09;37.46;101958.38;5057669;28;45270;-72
2023/09/03 08:08:43;;;;;;;;;2.25;2.25;;;;;33.13;37.56;101929.19;5057699;28;45178;-73
2023/09/03 08:11:08;;;;;;;;;2.00;2.00;;;;;33.42;37.38;101960.78;5058007;28;45411;-72
2023/09/03 08:13:34;;;;;;;;;2.00;2.00;;;;;33.33;36.84;101915.53;5057566;28;46340;-72
2023/09/03 08:15:59;;;;;;;;;2.75;2.75;;;;;33.80;36.44;101962.34;5057375;28;45367;-71
2023/09/03 08:18:25;;;;;;;;;1.50;1.50;;;;;33.74;35.36;101938.59;5057633;28;45280;-71
2023/09/03 08:20:51;;;;;;;;;3.00;3.00;;;;;33.95;36.26;101958.03;5057724;28;45474;-74
2023/09/03 08:23:18;;;;;;;;;4.00;2.25;;;;;33.96;35.88;101948.63;5057267;28;46530;-72
2023/09/03 08:25:43;;;;;;;;;2.25;2.00;;;;;34.08;35.67;101947.31;5072672;28;46021;-73
2023/09/03 08:28:09;;;;;;;;;2.50;2.50;;;;;34.00;35.33;101945.06;5057660;28;45365;-73
2023/09/03 08:30:35;;;;;;;;;3.75;1.75;;;;;33.88;35.82;101944.50;5058033;28;45370;-72
2023/09/03 08:33:01;;;;;;;;;3.50;2.50;;;;;33.89;35.87;101946.16;5057572;28;45620;-72
2023/09/03 08:35:29;;;;;;;;;2.00;2.00;;;;;33.85;35.89;101937.59;5073397;27;45379;-74
2023/09/03 08:37:58;;;;;;;;;3.00;1.75;;;;;33.74;36.06;101940.53;5056404;28;45284;-73
2023/09/03 08:40:24;;;;;;;;;2.00;2.00;;;;;33.53;36.44;101939.63;5073255;28;45411;-74
2023/09/03 08:42:52;;;;;;;;;2.50;2.50;;;;;33.40;36.87;101951.97;5072737;27;47432;-73
2023/09/03 08:45:18;;;;;;;;;1.00;1.00;;;;;33.34;36.96;101942.00;5057473;28;45290;-71
2023/09/03 08:47:44;;;;;;;;;2.00;2.00;;;;;33.20;37.10;101929.75;5072872;28;45267;-73
2023/09/03 08:50:14;;;;;;;;;2.00;2.00;;;;;33.00;37.05;101927.72;5057525;28;45474;-73
2023/09/03 08:52:41;;;;;;;;;4.00;4.00;;;;;32.48;37.83;101900.03;5056769;28;46591;-73
2023/09/03 08:55:07;;;;;;;;;2.25;2.25;;;;;32.40;37.76;101925.28;5056933;28;45272;-73
2023/09/03 08:57:34;;;;;;;;;1.00;1.00;;;;;32.62;38.65;101951.63;5057145;28;45249;-73
2023/09/03 09:00:01;;;;;;;;;2.25;2.25;;;;;32.58;37.85;101933.16;5056282;28;45453;-72
2023/09/03 09:02:26;;;;;;;;;3.00;1.75;;;;;32.60;38.23;101936.47;5057109;28;45534;-73
2023/09/03 09:04:52;;;;;;;;;4.00;3.00;;;;;32.78;38.02;101955.34;5056943;28;45323;-73
2023/09/03 09:07:22;;;;;;;;;3.00;3.00;;;;;32.90;37.98;101949.69;5056877;28;45709;-74
2023/09/03 09:09:50;;;;;;;;;2.33;2.33;;;;;33.08;38.12;101959.47;5055686;28;45344;-73
2023/09/03 09:12:31;;;;;;;;;3.25;2.00;;;;;33.24;37.36;101958.47;5055284;28;48012;-71
2023/09/03 09:15:03;;;;;;;;;1.75;1.75;;;;;33.26;36.45;101961.78;5072384;28;45678;-72
2023/09/03 09:17:35;;;;;;;;;2.50;2.50;;;;;33.10;37.37;101937.97;5056847;28;45425;-72
2023/09/03 09:20:00;;;;;;;;;3.50;3.50;;;;;33.32;37.40;101971.78;5056911;28;45353;-73
2023/09/03 09:22:29;;;;;;;;;7.33;3.00;;;;;33.52;37.02;101974.66;5056788;28;45628;-74
2023/09/03 09:24:54;;;;;;;;;2.00;2.00;;;;;33.68;37.24;101964.53;5056512;28;45532;-72
2023/09/03 09:27:20;;;;;;;;;2.25;2.25;;;;;34.12;36.33;101978.78;5056632;28;45457;-72
2023/09/03 09:29:46;;;;;;;;;3.33;3.33;;;;;34.31;35.99;101970.81;5056931;28;45313;-74
2023/09/03 09:32:22;;;;;;;;;2.00;2.00;;;;;34.64;34.90;101976.94;5056538;28;46552;-72
2023/09/03 09:34:48;;;;;;;;;3.50;3.50;;;;;34.54;34.77;101975.00;5056412;28;45227;-72
2023/09/03 09:37:15;;;;;;;;;3.25;3.25;;;;;33.96;35.21;101887.94;5071853;27;45237;-72
2023/09/03 09:39:47;;;;;;;;;4.75;2.00;;;;;34.43;35.19;101976.09;5056575;28;45394;-73
2023/09/03 09:42:18;;;;;;;;;2.00;2.00;;;;;34.11;35.83;101949.50;5055984;28;45536;-72
2023/09/03 09:44:52;;;;;;;;;3.00;3.00;;;;;33.97;35.62;101980.66;5056322;28;45398;-74
2023/09/03 09:47:19;;;;;;;;;4.00;4.00;;;;;33.16;35.90;101901.09;5056641;28;45269;-72
2023/09/03 09:49:45;;;;;;;;;4.00;4.00;;;;;33.35;37.33;101979.50;5056204;28;45426;-72
2023/09/03 09:52:12;;;;;;;;;3.00;3.00;;;;;33.06;37.45;101983.72;5071887;27;48861;-72
2023/09/03 09:54:41;;;;;;;;;4.00;4.00;;;;;32.70;38.06;101994.41;5056007;28;45154;-73
2023/09/03 09:57:14;;;;;;;;;4.67;4.67;;;;;32.55;38.80;101986.00;5056283;28;45405;-73
2023/09/03 09:59:44;;;;;;;;;4.00;3.00;;;;;32.36;38.91;101991.84;5056610;28;45335;-72
2023/09/03 10:02:14;;;;;;;;;2.67;2.67;;;;;32.13;38.84;101981.13;5071666;28;46874;-73
2023/09/03 10:04:44;;;;;;;;;3.67;3.67;;;;;31.97;39.39;101977.34;5055929;28;45280;-72
2023/09/03 10:07:10;;;;;;;;;3.25;3.25;;;;;31.39;40.50;101925.72;5056176;28;45344;-73
2023/09/03 10:09:37;;;;;;;;;5.00;5.00;;;;;31.52;40.43;101976.75;5054939;28;45637;-72
2023/09/03 10:12:07;;;;;;;;;4.00;2.25;;;;;31.33;40.65;101978.97;5057360;28;47050;-72
2023/09/03 10:14:33;;;;;;;;;3.50;2.25;;;;;31.21;41.41;101973.56;5059418;28;45451;-72
2023/09/03 10:17:07;;;;;;;;;5.00;5.00;;;;;31.05;41.50;101971.66;5058122;28;45567;-72
2023/09/03 10:19:47;;;;;;;;;3.00;3.00;;;;;31.00;41.85;101971.53;5059278;28;45316;-73
2023/09/03 10:22:15;;;;;;;;;3.00;3.00;;;;;30.97;42.16;101975.63;5059362;28;46508;-73
2023/09/03 10:24:53;;;;;;;;;3.00;3.00;;;;;30.98;41.87;101974.53;5059750;28;45327;-72
2023/09/03 10:27:24;;;;;;;;;3.00;3.00;;;;;30.90;41.78;101965.91;5058417;28;45309;-74
2023/09/03 10:29:51;;;;;;;;;2.33;2.33;;;;;30.72;42.34;101964.25;5058351;28;45314;-73
2023/09/03 10:32:19;;;;;;;;;3.67;3.00;;;;;30.52;42.34;101949.06;5059060;28;45756;-73
2023/09/03 10:34:44;;;;;;;;;3.00;3.00;;;;;30.61;42.76;101967.84;5074259;27;45958;-73
2023/09/03 10:37:12;;;;;;;;;3.00;3.00;;;;;30.50;42.64;101962.19;5059031;28;45317;-72
2023/09/03 10:39:45;;;;;;;;;4.00;4.00;;;;;30.48;43.33;101978.06;5059304;28;45260;-73
2023/09/03 10:42:23;;;;;;;;;5.00;4.00;;;;;30.36;43.09;101977.28;5057432;28;47430;-71
2023/09/03 10:44:59;;;;;;;;;2.75;2.75;;;;;30.01;43.74;101933.50;5074523;27;45429;-72
2023/09/03 10:47:25;;;;;;;;;3.00;3.00;;;;;30.18;43.75;101963.78;5059178;28;45426;-74
2023/09/03 10:49:52;;;;;;;;;3.00;3.00;;;;;30.21;43.75;101985.22;5059429;28;45288;-73
2023/09/03 10:52:27;;;;;;;;;4.50;4.50;;;;;30.13;43.82;101971.91;5058961;28;46165;-73
2023/09/03 10:55:12;;;;;;;;;4.75;3.50;;;;;30.04;43.95;101984.38;5058828;28;45350;-74
2023/09/03 10:57:38;;;;;;;;;5.00;5.00;;;;;29.74;43.74;101949.72;5058845;28;45260;-73
2023/09/03 11:00:06;;;;;;;;;4.33;4.33;;;;;29.31;44.58;101882.47;5059223;28;45244;-73
2023/09/03 11:02:34;;;;;;;;;3.00;3.00;;;;;29.83;44.45;101961.13;5058959;28;46288;-74
2023/09/03 11:05:09;;;;;;;;;3.75;3.75;;;;;29.82;44.31;101974.00;5058429;28;45260;-73
2023/09/03 11:07:34;;;;;;;;;3.00;3.00;;;;;29.74;44.22;101968.91;5074466;28;45218;-72
2023/09/03 11:10:19;;;;;;;;;5.50;4.25;;;;;29.62;44.35;101948.91;5058954;28;45388;-72
2023/09/03 11:12:46;;;;;;;;;5.00;4.00;;;;;29.64;44.49;101963.22;5058311;28;45612;-72
2023/09/03 11:15:12;;;;;;;;;4.00;4.00;;;;;29.34;44.22;101903.06;5058382;28;45263;-71
2023/09/03 11:17:37;;;;;;;;;3.75;3.75;;;;;29.63;44.41;101958.78;5058711;28;45560;-73
2023/09/03 11:20:03;;;;;;;;;4.00;4.00;;;;;29.50;44.32;101939.88;5058731;28;45310;-73
2023/09/03 11:22:36;;;;;;;;;3.00;3.00;;;;;29.53;44.35;101939.41;5073147;27;47018;-72
2023/09/03 11:25:02;;;;;;;;;3.67;3.67;;;;;29.59;44.56;101955.69;5073908;27;46042;-73